International Virtual Aviation Organisation

Russian Federation and Kazakhstan MCD

 

Карточка аэропорта USHH

Внимание!
Информация на этой странице в стадии наполнения.
Если вы не увидели какой-то информации, или заметили неточность - пожалуйста сообщите нам!
Спасибо!
Команда RU-STAFF
Название аэропортаХанты-Мансийск
Название аэропорта (англ.)Khanty-Mansiysk
Превышение141 ft. (43 m.)
Координаты61°1.7039999999999', 69°5.1599999999999'
Высота перехода800m
Эшелон переходаFL050
Коды ответчика5150-5177
Зона ОрВДТюмень РПИ (USTV)
Данные METARUSHH 060830Z 01002MPS 300V050 7000 -SN SCT013 M08/M09 Q0995 R06/490250 TEMPO 2000 SN BKN005
Проноз погоды (TAF)USHH 060755Z 0609/0709 33003G08MPS 9999 BKN016 TEMPO 0609/0612 02003MPS 5000 -SN FEW006 BKN011 TEMPO 0612/0624 3000 -SHSN SCT004 BKN016CB BECMG 0617/0619 27003MPS TEMPO 0700/0709 1000 SHSN BR SCT003 BKN016CB
NOTAMshow/hide NOTAM
AWOS   TABLE

Информация о ВПП

ВПП Длина ВПП (м.) Покрытие Курс ВПП Частота ILS
062800Асфальтобетон58111.9
242800Асфальтобетон238110.1

Диспетчерские позиции

Позывной Наименование органа УВД Частота
USHH_R_APPХантым-Круг120.4
USHH_TWRХантым-Вышка118.1



Спутниковое изображение